createdAt,value
2018-12-22T00:00:06.834Z,11.7
2018-12-22T00:01:08.318Z,11.7
2018-12-22T00:02:09.754Z,11.7
2018-12-22T00:03:12.179Z,11.7
2018-12-22T00:04:13.699Z,11.7
2018-12-22T00:05:15.150Z,11.7
2018-12-22T00:06:16.612Z,11.7
2018-12-22T00:07:18.045Z,11.7
2018-12-22T00:08:19.533Z,11.7
2018-12-22T00:09:21.655Z,11.6
2018-12-22T00:10:23.146Z,11.7
2018-12-22T00:11:24.719Z,11.7
2018-12-22T00:12:26.172Z,11.7
2018-12-22T00:13:28.621Z,11.7
2018-12-22T00:14:30.175Z,11.7
2018-12-22T00:15:47.950Z,11.7
2018-12-22T00:16:49.339Z,11.7
2018-12-22T00:17:50.709Z,11.7
2018-12-22T00:18:52.089Z,11.6
2018-12-22T00:19:53.484Z,11.7
2018-12-22T00:20:54.866Z,11.7
2018-12-22T00:21:56.265Z,11.7
2018-12-22T00:22:57.705Z,11.7
2018-12-22T00:23:59.152Z,11.7
2018-12-22T00:25:00.631Z,11.7
2018-12-22T00:26:02.914Z,11.8
2018-12-22T00:27:04.339Z,11.7
2018-12-22T00:28:05.795Z,11.7
2018-12-22T00:29:07.950Z,11.7
2018-12-22T00:30:09.415Z,11.7
2018-12-22T00:31:10.861Z,11.7
2018-12-22T00:32:12.381Z,11.6
2018-12-22T00:33:15.678Z,11.7
2018-12-22T00:34:15.289Z,11.7
2018-12-22T00:35:16.798Z,11.6
2018-12-22T00:36:18.241Z,11.7
2018-12-22T00:37:19.711Z,11.6
2018-12-22T00:38:21.133Z,11.6
2018-12-22T00:39:23.401Z,11.7
2018-12-22T00:40:24.851Z,11.7
2018-12-22T00:41:26.253Z,11.7
2018-12-22T00:42:27.662Z,11.7
2018-12-22T00:43:29.084Z,11.8
2018-12-22T00:44:30.524Z,11.8
2018-12-22T00:45:32.028Z,11.7
2018-12-22T00:46:33.494Z,11.8
2018-12-22T00:47:34.944Z,11.8
2018-12-22T00:48:36.415Z,11.8
2018-12-22T00:49:37.975Z,11.7
2018-12-22T00:50:39.423Z,11.8
2018-12-22T00:51:40.863Z,11.7
2018-12-22T00:52:42.328Z,11.9
2018-12-22T00:53:43.854Z,11.8
2018-12-22T00:54:45.320Z,11.7
2018-12-22T00:55:46.757Z,11.7
2018-12-22T00:56:48.819Z,11.7
2018-12-22T00:57:50.319Z,11.8
2018-12-22T00:58:51.853Z,11.9
2018-12-22T00:59:53.491Z,11.8
2018-12-22T01:00:54.955Z,11.8
2018-12-22T01:01:56.410Z,11.9
2018-12-22T01:02:59.681Z,11.7
2018-12-22T01:04:01.703Z,11.8
2018-12-22T01:05:03.207Z,11.7
2018-12-22T01:06:04.638Z,11.7
2018-12-22T01:07:06.111Z,11.7
2018-12-22T01:08:07.536Z,11.7
2018-12-22T01:09:09.082Z,11.6
2018-12-22T01:10:10.509Z,11.6
2018-12-22T01:11:11.964Z,11.7
2018-12-22T01:12:13.455Z,11.7
2018-12-22T01:13:15.235Z,11.7
2018-12-22T01:14:16.684Z,11.7
2018-12-22T01:15:18.150Z,11.7
2018-12-22T01:16:19.636Z,11.7
2018-12-22T01:17:21.991Z,11.7
2018-12-22T01:18:23.441Z,11.7
2018-12-22T01:19:24.910Z,11.7
2018-12-22T01:20:26.370Z,11.8
2018-12-22T01:21:27.806Z,11.6
2018-12-22T01:22:29.259Z,11.7
2018-12-22T01:23:30.670Z,11.7
2018-12-22T01:24:32.135Z,11.7
2018-12-22T01:25:33.630Z,11.7
2018-12-22T01:26:35.101Z,11.7
2018-12-22T01:27:36.561Z,11.7
2018-12-22T01:28:39.570Z,11.7
2018-12-22T01:29:41.056Z,11.7
2018-12-22T01:30:42.481Z,11.7
2018-12-22T01:31:43.937Z,11.7
2018-12-22T01:32:47.164Z,11.6
2018-12-22T01:33:48.771Z,11.7
2018-12-22T01:34:50.937Z,11.7
2018-12-22T01:35:52.480Z,11.7
2018-12-22T01:36:54.083Z,11.6
2018-12-22T01:37:55.583Z,11.7
2018-12-22T01:38:57.042Z,11.8
2018-12-22T01:39:59.196Z,11.6
2018-12-22T01:41:00.745Z,11.7
2018-12-22T01:42:02.191Z,11.7
2018-12-22T01:43:03.642Z,11.7
2018-12-22T01:44:05.067Z,11.7
2018-12-22T01:45:06.517Z,11.7
2018-12-22T01:46:07.981Z,11.7
2018-12-22T01:47:09.427Z,11.6
2018-12-22T01:48:10.829Z,11.7
2018-12-22T01:49:12.257Z,11.7
2018-12-22T01:50:13.707Z,11.7
2018-12-22T01:51:15.152Z,11.7
2018-12-22T01:52:16.597Z,11.6
2018-12-22T01:53:18.058Z,11.7
2018-12-22T01:54:19.517Z,11.7
2018-12-22T01:55:21.023Z,11.7
2018-12-22T01:56:22.478Z,11.7
2018-12-22T01:57:24.001Z,11.7
2018-12-22T01:58:25.416Z,11.7
2018-12-22T01:59:26.905Z,11.7
2018-12-22T02:00:28.420Z,11.7
2018-12-22T02:01:29.915Z,11.7
2018-12-22T02:02:31.408Z,11.6
2018-12-22T02:03:32.842Z,11.6
2018-12-22T02:04:34.325Z,11.6
2018-12-22T02:05:35.816Z,11.6
2018-12-22T02:06:37.306Z,11.6
2018-12-22T02:07:38.766Z,11.6
2018-12-22T02:08:40.240Z,11.7
2018-12-22T02:09:41.675Z,11.7
2018-12-22T02:10:43.176Z,11.6
2018-12-22T02:11:44.627Z,11.6
2018-12-22T02:12:46.136Z,11.6
2018-12-22T02:13:47.641Z,11.6
2018-12-22T02:14:49.089Z,11.6
2018-12-22T02:15:50.699Z,11.6
2018-12-22T02:16:52.120Z,11.6
2018-12-22T02:17:53.555Z,11.6
2018-12-22T02:18:55.821Z,11.5
2018-12-22T02:19:56.522Z,11.6
2018-12-22T02:20:58.014Z,11.5
2018-12-22T02:21:59.457Z,11.5
2018-12-22T02:23:00.973Z,11.6
2018-12-22T02:24:02.412Z,11.6
2018-12-22T02:25:03.864Z,11.6
2018-12-22T02:26:05.333Z,11.6
2018-12-22T02:27:07.639Z,11.5
2018-12-22T02:28:09.919Z,11.6
2018-12-22T02:29:11.377Z,11.6
2018-12-22T02:30:13.489Z,11.6
2018-12-22T02:31:14.941Z,11.6
2018-12-22T02:32:18.337Z,11.6
2018-12-22T02:33:17.841Z,11.6
2018-12-22T02:34:19.311Z,11.6
2018-12-22T02:35:20.767Z,11.6
2018-12-22T02:36:22.937Z,11.6
2018-12-22T02:37:24.368Z,11.6
2018-12-22T02:38:25.867Z,11.6
2018-12-22T02:39:27.822Z,11.6
2018-12-22T02:40:28.714Z,11.6
2018-12-22T02:41:30.189Z,11.6
2018-12-22T02:42:31.658Z,11.6
2018-12-22T02:43:34.066Z,11.5
2018-12-22T02:44:35.566Z,11.6
2018-12-22T02:45:37.031Z,11.6
2018-12-22T02:46:38.496Z,11.6
2018-12-22T02:47:39.961Z,11.6
2018-12-22T02:48:41.456Z,11.6
2018-12-22T02:49:42.910Z,11.6
2018-12-22T02:50:44.326Z,11.6
2018-12-22T02:51:45.791Z,11.6
2018-12-22T02:52:47.252Z,11.6
2018-12-22T02:53:48.733Z,11.6
2018-12-22T02:54:50.218Z,11.5
2018-12-22T02:55:51.686Z,11.6
2018-12-22T02:56:53.232Z,11.6
2018-12-22T02:57:54.702Z,11.6
2018-12-22T02:58:56.167Z,11.6
2018-12-22T02:59:57.653Z,11.6
2018-12-22T03:00:59.138Z,11.6
2018-12-22T03:02:00.582Z,11.6
2018-12-22T03:03:02.018Z,11.6
2018-12-22T03:04:03.514Z,11.6
2018-12-22T03:05:05.048Z,11.6
2018-12-22T03:06:06.468Z,11.6
2018-12-22T03:07:07.929Z,11.6
2018-12-22T03:08:09.394Z,11.6
2018-12-22T03:09:10.879Z,11.6
2018-12-22T03:10:12.305Z,11.6
2018-12-22T03:11:13.785Z,11.6
2018-12-22T03:12:15.248Z,11.6
2018-12-22T03:13:16.751Z,11.6
2018-12-22T03:14:18.272Z,11.5
2018-12-22T03:15:19.718Z,11.6
2018-12-22T03:16:21.223Z,11.5
2018-12-22T03:17:23.524Z,11.5
2018-12-22T03:18:24.978Z,11.5
2018-12-22T03:19:26.392Z,11.5
2018-12-22T03:20:27.794Z,11.5
2018-12-22T03:21:29.212Z,11.4
2018-12-22T03:22:31.478Z,11.4
2018-12-22T03:23:32.866Z,11.5
2018-12-22T03:24:34.252Z,11.4
2018-12-22T03:25:35.643Z,11.4
2018-12-22T03:26:37.009Z,11.4
2018-12-22T03:27:38.387Z,11.4
2018-12-22T03:28:39.774Z,11.4
2018-12-22T03:29:41.154Z,11.4
2018-12-22T03:30:42.578Z,11.4
2018-12-22T03:31:43.961Z,11.4
2018-12-22T03:32:45.398Z,11.5
2018-12-22T03:33:47.002Z,11.4
2018-12-22T03:34:48.259Z,11.4
2018-12-22T03:35:49.647Z,11.4
2018-12-22T03:36:51.028Z,11.4
2018-12-22T03:37:52.424Z,11.4
2018-12-22T03:38:54.719Z,11.4
2018-12-22T03:39:56.103Z,11.4
2018-12-22T03:40:57.465Z,11.4
2018-12-22T03:41:58.829Z,11.3
2018-12-22T03:43:00.203Z,11.4
2018-12-22T03:44:01.579Z,11.4
2018-12-22T03:45:02.950Z,11.4
2018-12-22T03:46:04.324Z,11.4
2018-12-22T03:47:05.682Z,11.4
2018-12-22T03:48:07.042Z,11.4
2018-12-22T03:49:08.379Z,11.4
2018-12-22T03:50:10.319Z,11.4
2018-12-22T03:51:11.664Z,11.4
2018-12-22T03:52:13.019Z,11.4
2018-12-22T03:53:14.398Z,11.4
2018-12-22T03:54:15.744Z,11.4
2018-12-22T03:55:17.627Z,11.4
2018-12-22T03:56:18.987Z,11.3
2018-12-22T03:57:20.348Z,11.4
2018-12-22T03:58:21.727Z,11.4
2018-12-22T03:59:24.952Z,11.4
2018-12-22T04:00:24.524Z,11.4
2018-12-22T04:01:25.884Z,11.4
2018-12-22T04:02:27.734Z,11.4
2018-12-22T04:03:29.100Z,11.4
2018-12-22T04:04:30.464Z,11.4
2018-12-22T04:05:31.842Z,11.3
2018-12-22T04:06:34.073Z,11.3
2018-12-22T04:07:35.417Z,11.3
2018-12-22T04:08:36.772Z,11.3
2018-12-22T04:09:38.133Z,11.4
2018-12-22T04:10:39.497Z,11.3
2018-12-22T04:11:40.853Z,11.4
2018-12-22T04:12:42.212Z,11.4
2018-12-22T04:13:43.585Z,11.4
2018-12-22T04:14:45.019Z,11.3
2018-12-22T04:15:46.462Z,11.3
2018-12-22T04:16:47.938Z,11.4
2018-12-22T04:17:50.195Z,11.3
2018-12-22T04:18:51.593Z,11.3
2018-12-22T04:19:53.012Z,11.3
2018-12-22T04:20:54.409Z,11.3
2018-12-22T04:21:55.862Z,11.4
2018-12-22T04:22:58.132Z,11.3
2018-12-22T04:23:59.568Z,11.3
2018-12-22T04:25:00.908Z,11.3
2018-12-22T04:26:02.789Z,11.4
2018-12-22T04:27:04.308Z,11.3
2018-12-22T04:28:05.561Z,11.3
2018-12-22T04:29:06.945Z,11.3
2018-12-22T04:30:08.323Z,11.3
2018-12-22T04:31:09.717Z,11.3
2018-12-22T04:32:12.030Z,11.3
2018-12-22T04:33:13.504Z,11.3
2018-12-22T04:34:15.652Z,11.3
2018-12-22T04:35:17.140Z,11.3
2018-12-22T04:36:18.549Z,11.3
2018-12-22T04:37:19.999Z,11.3
2018-12-22T04:38:21.453Z,11.3
2018-12-22T04:39:22.919Z,11.4
2018-12-22T04:40:24.338Z,11.3
2018-12-22T04:41:25.837Z,11.3
2018-12-22T04:42:28.589Z,11.3
2018-12-22T04:43:29.968Z,11.3
2018-12-22T04:44:31.462Z,11.3
2018-12-22T04:45:32.689Z,11.3
2018-12-22T04:46:34.083Z,11.3
2018-12-22T04:47:35.957Z,11.3
2018-12-22T04:48:37.406Z,11.3
2018-12-22T04:49:38.647Z,11.3
2018-12-22T04:50:40.022Z,11.2
2018-12-22T04:51:41.408Z,11.2
2018-12-22T04:52:42.767Z,11.2
2018-12-22T04:53:44.135Z,11.2
2018-12-22T04:54:45.490Z,11.2
2018-12-22T04:55:46.847Z,11.1
2018-12-22T04:56:48.204Z,11.2
2018-12-22T04:57:49.572Z,11.2
2018-12-22T04:58:50.912Z,11.2
2018-12-22T04:59:52.264Z,11.2
2018-12-22T05:00:53.617Z,11.1
2018-12-22T05:01:54.971Z,11.1
2018-12-22T05:02:56.331Z,11.2
2018-12-22T05:03:57.677Z,11.2
2018-12-22T05:04:59.040Z,11.2
2018-12-22T05:06:00.387Z,11.2
2018-12-22T05:07:01.774Z,11.2
2018-12-22T05:08:03.804Z,11.1
2018-12-22T05:09:05.154Z,11.2
2018-12-22T05:10:06.517Z,11.1
2018-12-22T05:11:08.810Z,11.2
2018-12-22T05:12:10.184Z,11.2
2018-12-22T05:13:12.020Z,11.1
2018-12-22T05:14:13.420Z,11.1
2018-12-22T05:15:14.790Z,11.1
2018-12-22T05:16:16.151Z,11.1
2018-12-22T05:17:17.503Z,11.2
2018-12-22T05:18:18.861Z,11.2
2018-12-22T05:19:20.238Z,11.1
2018-12-22T05:20:21.604Z,11.1
2018-12-22T05:21:22.984Z,11.1
2018-12-22T05:22:24.383Z,11.0
2018-12-22T05:23:25.742Z,11.0
2018-12-22T05:24:27.113Z,11.1
2018-12-22T05:25:28.489Z,11.0
2018-12-22T05:26:29.868Z,11.1
2018-12-22T05:27:31.216Z,11.1
2018-12-22T05:28:32.591Z,11.1
2018-12-22T05:29:33.958Z,11.1
2018-12-22T05:30:35.317Z,11.0
2018-12-22T05:31:36.669Z,11.1
2018-12-22T05:32:38.024Z,11.1
2018-12-22T05:33:39.382Z,11.0
2018-12-22T05:34:40.729Z,11.0
2018-12-22T05:35:42.797Z,11.2
2018-12-22T05:36:44.149Z,11.1
2018-12-22T05:37:45.497Z,11.1
2018-12-22T05:38:46.851Z,11.1
2018-12-22T05:39:48.213Z,11.0
2018-12-22T05:40:49.567Z,11.1
2018-12-22T05:41:51.527Z,11.1
2018-12-22T05:42:52.897Z,11.0
2018-12-22T05:43:54.261Z,11.0
2018-12-22T05:44:55.749Z,11.2
2018-12-22T05:45:57.112Z,11.2
2018-12-22T05:46:59.429Z,11.1
2018-12-22T05:48:00.787Z,11.1
2018-12-22T05:49:02.151Z,11.1
2018-12-22T05:50:03.499Z,11.1
2018-12-22T05:51:04.857Z,11.1
2018-12-22T05:52:06.209Z,11.0
2018-12-22T05:53:08.808Z,11.0
2018-12-22T05:54:10.164Z,11.1
2018-12-22T05:55:11.518Z,10.9
2018-12-22T05:56:12.871Z,11.0
2018-12-22T05:57:14.252Z,11.0
2018-12-22T05:58:15.617Z,11.0
2018-12-22T05:59:16.972Z,11.0
2018-12-22T06:00:18.328Z,11.0
2018-12-22T06:01:19.679Z,11.0
2018-12-22T06:02:21.038Z,11.0
2018-12-22T06:03:22.392Z,11.0
2018-12-22T06:04:23.771Z,11.1
2018-12-22T06:05:25.892Z,11.0
2018-12-22T06:06:27.248Z,10.9
2018-12-22T06:07:28.605Z,11.0
2018-12-22T06:08:30.004Z,11.0
2018-12-22T06:09:31.348Z,11.0
2018-12-22T06:10:32.705Z,11.0
2018-12-22T06:11:34.062Z,11.0
2018-12-22T06:12:35.407Z,11.0
2018-12-22T06:13:37.298Z,11.0
2018-12-22T06:14:38.643Z,11.0
2018-12-22T06:15:40.978Z,11.0
2018-12-22T06:16:42.324Z,11.0
2018-12-22T06:17:43.684Z,10.9
2018-12-22T06:18:45.938Z,11.0
2018-12-22T06:19:47.286Z,11.0
2018-12-22T06:20:48.632Z,11.0
2018-12-22T06:21:49.990Z,10.9
2018-12-22T06:22:51.343Z,11.0
2018-12-22T06:23:52.708Z,10.9
2018-12-22T06:24:54.060Z,10.9
2018-12-22T06:25:55.413Z,10.9
2018-12-22T06:26:56.773Z,10.9
2018-12-22T06:27:58.459Z,10.9
2018-12-22T06:28:59.821Z,10.9
2018-12-22T06:30:08.949Z,10.9
2018-12-22T06:31:02.534Z,11.0
2018-12-22T06:32:03.834Z,10.9
2018-12-22T06:33:05.729Z,10.9
2018-12-22T06:34:07.081Z,10.9
2018-12-22T06:35:08.438Z,10.9
2018-12-22T06:36:09.833Z,10.9
2018-12-22T06:37:11.192Z,10.9
2018-12-22T06:38:12.627Z,10.9
2018-12-22T06:39:14.107Z,10.9
2018-12-22T06:40:15.468Z,11.0
2018-12-22T06:41:16.829Z,10.9
2018-12-22T06:42:18.184Z,10.9
2018-12-22T06:43:21.029Z,10.9
2018-12-22T06:44:22.406Z,10.9
2018-12-22T06:45:23.864Z,10.9
2018-12-22T06:46:25.344Z,10.8
2018-12-22T06:47:26.805Z,10.9
2018-12-22T06:48:29.104Z,10.9
2018-12-22T06:49:30.748Z,10.8
2018-12-22T06:50:32.203Z,10.8
2018-12-22T06:51:33.624Z,10.8
2018-12-22T06:52:35.715Z,10.9
2018-12-22T06:53:37.760Z,10.9
2018-12-22T06:54:39.915Z,10.8
2018-12-22T06:55:41.404Z,10.9
2018-12-22T06:56:43.473Z,10.8
2018-12-22T06:57:44.903Z,10.9
2018-12-22T06:58:46.348Z,10.9
2018-12-22T06:59:47.740Z,10.9
2018-12-22T07:00:49.234Z,10.8
2018-12-22T07:01:50.638Z,10.9
2018-12-22T07:02:51.988Z,10.9
2018-12-22T07:03:53.501Z,10.9
2018-12-22T07:04:54.929Z,10.9
2018-12-22T07:05:56.599Z,11.0
2018-12-22T07:06:58.115Z,10.9
2018-12-22T07:07:59.674Z,10.9
2018-12-22T07:09:01.580Z,10.9
2018-12-22T07:10:03.535Z,10.9
2018-12-22T07:11:05.512Z,10.9
2018-12-22T07:12:07.288Z,10.9
2018-12-22T07:13:09.195Z,10.9
2018-12-22T07:14:11.100Z,10.9
2018-12-22T07:15:13.129Z,10.9
2018-12-22T07:16:15.501Z,11.0
2018-12-22T07:17:16.959Z,10.9
2018-12-22T07:18:18.838Z,11.0
2018-12-22T07:19:20.303Z,11.0
2018-12-22T07:20:22.104Z,11.0
2018-12-22T07:21:23.956Z,11.0
2018-12-22T07:22:25.966Z,11.0
2018-12-22T07:23:29.225Z,11.0
2018-12-22T07:24:31.940Z,11.0
2018-12-22T07:25:33.848Z,10.9
2018-12-22T07:26:35.775Z,11.0
2018-12-22T07:27:37.705Z,10.9
2018-12-22T07:28:39.685Z,11.0
2018-12-22T07:29:41.306Z,10.9
2018-12-22T07:30:43.964Z,11.1
2018-12-22T07:31:45.641Z,11.1
2018-12-22T07:32:47.080Z,11.0
2018-12-22T07:33:48.579Z,10.9
2018-12-22T07:34:50.135Z,10.9
2018-12-22T07:35:51.578Z,11.1
2018-12-22T07:36:53.485Z,11.1
2018-12-22T07:37:54.850Z,11.1
2018-12-22T07:38:56.890Z,11.1
2018-12-22T07:39:58.265Z,11.1
2018-12-22T07:40:59.744Z,11.1
2018-12-22T07:42:01.224Z,11.0
2018-12-22T07:43:02.543Z,11.1
2018-12-22T07:44:03.906Z,11.1
2018-12-22T07:45:05.261Z,11.1
2018-12-22T07:46:06.628Z,11.1
2018-12-22T07:47:08.740Z,11.2
2018-12-22T07:48:10.934Z,11.1
2018-12-22T07:49:12.900Z,11.1
2018-12-22T07:50:14.434Z,11.1
2018-12-22T07:51:16.023Z,11.0
2018-12-22T07:52:17.949Z,11.1
2018-12-22T07:53:20.295Z,11.1
2018-12-22T07:54:22.948Z,11.1
2018-12-22T07:55:24.505Z,11.1
2018-12-22T07:56:25.986Z,11.2
2018-12-22T07:57:27.514Z,11.1
2018-12-22T07:58:29.370Z,11.1
2018-12-22T07:59:30.853Z,11.0
2018-12-22T08:00:35.082Z,11.2
2018-12-22T08:01:35.655Z,11.2
2018-12-22T08:02:37.995Z,11.2
2018-12-22T08:03:39.844Z,11.3
2018-12-22T08:04:41.565Z,11.3
2018-12-22T08:05:43.355Z,11.3
2018-12-22T08:06:45.346Z,11.3
2018-12-22T08:07:47.679Z,11.3
2018-12-22T08:08:49.494Z,11.3
2018-12-22T08:09:51.198Z,11.3
2018-12-22T08:10:53.071Z,11.2
2018-12-22T08:11:55.640Z,11.2
2018-12-22T08:12:57.506Z,11.2
2018-12-22T08:13:59.206Z,11.2
2018-12-22T08:15:01.256Z,11.2
2018-12-22T08:16:03.990Z,11.3
2018-12-22T08:17:05.902Z,11.3
2018-12-22T08:18:09.080Z,11.3
2018-12-22T08:19:12.088Z,11.3
2018-12-22T08:20:13.681Z,11.3
2018-12-22T08:21:16.178Z,11.3
2018-12-22T08:22:18.356Z,11.3
2018-12-22T08:23:20.089Z,11.4
2018-12-22T08:24:21.644Z,11.3
2018-12-22T08:25:23.425Z,11.3
2018-12-22T08:26:26.484Z,11.3
2018-12-22T08:27:28.269Z,11.3
2018-12-22T08:28:30.034Z,11.3
2018-12-22T08:29:32.535Z,11.3
2018-12-22T08:30:34.230Z,11.3
2018-12-22T08:31:35.940Z,11.3
2018-12-22T08:32:37.567Z,11.3
2018-12-22T08:33:39.670Z,11.3
2018-12-22T08:34:42.814Z,11.4
2018-12-22T08:35:46.416Z,11.4
2018-12-22T08:36:47.996Z,11.4
2018-12-22T08:37:50.064Z,11.4
2018-12-22T08:38:52.346Z,11.4
2018-12-22T08:39:54.516Z,11.4
2018-12-22T08:40:57.226Z,11.4
2018-12-22T08:41:59.569Z,11.5
2018-12-22T08:43:01.919Z,11.6
2018-12-22T08:44:04.121Z,11.6
2018-12-22T08:45:06.872Z,11.6
2018-12-22T08:46:09.169Z,11.6
2018-12-22T08:47:11.327Z,11.7
2018-12-22T08:48:13.007Z,11.6
2018-12-22T08:49:14.442Z,11.6
2018-12-22T08:50:16.680Z,11.6
2018-12-22T08:51:18.090Z,11.6
2018-12-22T08:52:19.431Z,11.6
2018-12-22T08:53:20.790Z,11.6
2018-12-22T08:54:23.037Z,11.6
2018-12-22T08:55:24.426Z,11.5
2018-12-22T08:56:25.781Z,11.5
2018-12-22T08:57:27.150Z,11.6
2018-12-22T08:58:28.532Z,11.6
2018-12-22T08:59:29.891Z,11.6
2018-12-22T09:00:31.254Z,11.6
2018-12-22T09:01:32.819Z,11.6
2018-12-22T09:02:34.999Z,11.6
2018-12-22T09:03:37.926Z,11.6
2018-12-22T09:04:38.655Z,11.6
2018-12-22T09:05:40.077Z,11.7
2018-12-22T09:06:41.456Z,11.6
2018-12-22T09:07:42.816Z,11.7
2018-12-22T09:08:44.201Z,11.6
2018-12-22T09:09:45.589Z,11.7
2018-12-22T09:10:46.956Z,11.7
2018-12-22T09:11:48.334Z,11.7
2018-12-22T09:12:49.705Z,11.8
2018-12-22T09:13:51.206Z,11.6
2018-12-22T09:14:53.145Z,11.7
2018-12-22T09:15:54.587Z,11.7
2018-12-22T09:16:55.987Z,11.7
2018-12-22T09:17:57.426Z,11.7
2018-12-22T09:18:59.606Z,11.6
2018-12-22T09:20:01.642Z,11.7
2018-12-22T09:21:03.936Z,11.7
2018-12-22T09:22:04.511Z,11.7
2018-12-22T09:23:06.019Z,11.6
2018-12-22T09:24:07.533Z,11.6
2018-12-22T09:25:09.790Z,11.6
2018-12-22T09:26:11.306Z,11.7
2018-12-22T09:27:12.676Z,11.8
2018-12-22T09:28:14.099Z,11.7
2018-12-22T09:29:15.658Z,11.7
2018-12-22T09:30:18.100Z,11.7
2018-12-22T09:31:19.865Z,11.7
2018-12-22T09:32:21.384Z,11.7
2018-12-22T09:33:22.920Z,11.8
2018-12-22T09:34:24.361Z,11.8
2018-12-22T09:35:25.842Z,11.7
2018-12-22T09:36:27.436Z,11.7
2018-12-22T09:37:28.850Z,11.6
2018-12-22T09:38:31.250Z,11.7
2018-12-22T09:39:32.746Z,11.7
2018-12-22T09:40:34.660Z,11.6
2018-12-22T09:41:36.134Z,11.7
2018-12-22T09:42:38.945Z,11.8
2018-12-22T09:43:39.667Z,11.7
2018-12-22T09:44:41.082Z,11.8
2018-12-22T09:45:42.511Z,11.7
2018-12-22T09:46:43.887Z,11.7
2018-12-22T09:47:46.066Z,11.7
2018-12-22T09:48:48.955Z,11.7
2018-12-22T09:49:50.854Z,11.7
2018-12-22T09:50:52.227Z,11.7
2018-12-22T09:51:53.651Z,11.7
2018-12-22T09:52:55.195Z,11.7
2018-12-22T09:53:57.336Z,11.7
2018-12-22T09:54:58.932Z,11.7
2018-12-22T09:56:00.289Z,11.8
2018-12-22T09:57:01.794Z,11.7
2018-12-22T09:58:03.279Z,11.8
2018-12-22T09:59:06.375Z,11.8
2018-12-22T10:00:06.507Z,11.8
2018-12-22T10:01:09.407Z,11.9
2018-12-22T10:02:09.512Z,11.9
2018-12-22T10:03:10.986Z,11.8
2018-12-22T10:04:12.425Z,11.9
2018-12-22T10:05:13.857Z,11.8
2018-12-22T10:06:15.294Z,11.9
2018-12-22T10:07:16.691Z,11.9
2018-12-22T10:08:18.095Z,11.9
2018-12-22T10:09:20.371Z,11.9
2018-12-22T10:10:21.769Z,11.9
2018-12-22T10:11:23.163Z,11.9
2018-12-22T10:12:26.038Z,11.9
2018-12-22T10:13:28.092Z,12.0
2018-12-22T10:14:29.502Z,11.9
2018-12-22T10:15:31.880Z,11.9
2018-12-22T10:16:33.671Z,11.9
2018-12-22T10:17:35.086Z,12.0
2018-12-22T10:18:36.510Z,11.9
2018-12-22T10:19:37.869Z,12.0
2018-12-22T10:20:39.311Z,12.0
2018-12-22T10:21:40.695Z,11.9
2018-12-22T10:22:42.098Z,11.9
2018-12-22T10:23:43.482Z,11.9
2018-12-22T10:24:44.860Z,11.9
2018-12-22T10:25:46.264Z,12.0
2018-12-22T10:26:55.126Z,11.9
2018-12-22T10:27:58.032Z,11.9
2018-12-22T10:28:59.385Z,11.9
2018-12-22T10:30:00.776Z,12.0
2018-12-22T10:31:02.119Z,11.9
2018-12-22T10:32:03.477Z,11.9
2018-12-22T10:33:04.858Z,11.9
2018-12-22T10:34:07.036Z,12.0
2018-12-22T10:35:08.432Z,12.0
2018-12-22T10:36:09.825Z,11.9
2018-12-22T10:37:11.396Z,11.9
2018-12-22T10:38:14.381Z,11.9
2018-12-22T10:39:16.456Z,11.9
2018-12-22T10:40:17.301Z,11.9
2018-12-22T10:41:18.718Z,11.9
2018-12-22T10:42:20.310Z,11.9
2018-12-22T10:43:21.679Z,11.9
2018-12-22T10:44:23.062Z,12.0
2018-12-22T10:45:24.446Z,11.9
2018-12-22T10:46:26.081Z,11.9
2018-12-22T10:47:27.632Z,11.9
2018-12-22T10:48:29.197Z,11.9
2018-12-22T10:49:30.731Z,12.0
2018-12-22T10:50:32.203Z,11.9
2018-12-22T10:51:33.673Z,11.9
2018-12-22T10:52:35.171Z,11.9
2018-12-22T10:53:37.300Z,12.0
2018-12-22T10:54:39.557Z,11.9
2018-12-22T10:55:41.000Z,11.9
2018-12-22T10:56:42.482Z,11.9
2018-12-22T10:57:43.940Z,11.9
2018-12-22T10:58:45.391Z,11.9
2018-12-22T10:59:46.835Z,11.9
2018-12-22T11:00:48.300Z,11.9
2018-12-22T11:01:49.738Z,11.8
2018-12-22T11:02:51.240Z,11.8
2018-12-22T11:03:53.559Z,11.8
2018-12-22T11:04:55.036Z,11.8
2018-12-22T11:05:56.543Z,11.9
2018-12-22T11:06:58.808Z,11.8
2018-12-22T11:08:00.251Z,11.9
2018-12-22T11:09:01.727Z,11.9
2018-12-22T11:10:03.473Z,12.0
2018-12-22T11:11:05.593Z,11.9
2018-12-22T11:12:07.973Z,12.0
2018-12-22T11:13:08.446Z,12.0
2018-12-22T11:14:11.923Z,12.0
2018-12-22T11:15:12.011Z,12.0
2018-12-22T11:16:13.447Z,12.1
2018-12-22T11:17:14.875Z,12.0
2018-12-22T11:18:17.447Z,12.1
2018-12-22T11:19:18.031Z,12.1
2018-12-22T11:20:19.583Z,12.1
2018-12-22T11:21:21.106Z,12.2
2018-12-22T11:22:22.560Z,12.2
2018-12-22T11:23:24.746Z,12.2
2018-12-22T11:24:26.946Z,12.3
2018-12-22T11:25:28.312Z,12.2
2018-12-22T11:26:29.695Z,12.2
2018-12-22T11:27:31.611Z,12.3
2018-12-22T11:28:32.982Z,12.2
2018-12-22T11:29:34.342Z,12.1
2018-12-22T11:30:35.730Z,12.2
2018-12-22T11:31:37.126Z,12.1
2018-12-22T11:32:38.502Z,12.1
2018-12-22T11:33:39.966Z,12.1
2018-12-22T11:34:41.455Z,12.1
2018-12-22T11:35:42.878Z,12.1
2018-12-22T11:36:45.113Z,12.1
2018-12-22T11:37:46.570Z,12.1
2018-12-22T11:38:48.036Z,12.1
2018-12-22T11:39:49.528Z,12.1
2018-12-22T11:40:51.556Z,12.1
2018-12-22T11:41:53.086Z,12.1
2018-12-22T11:42:54.573Z,12.1
2018-12-22T11:43:56.032Z,12.1
2018-12-22T11:44:57.510Z,12.1
2018-12-22T11:45:58.955Z,12.1
2018-12-22T11:47:00.381Z,12.1
2018-12-22T11:48:02.374Z,12.1
2018-12-22T11:49:04.607Z,12.0
2018-12-22T11:50:05.986Z,12.0
2018-12-22T11:51:07.431Z,12.0
2018-12-22T11:52:08.918Z,12.0
2018-12-22T11:53:10.346Z,12.1
2018-12-22T11:54:11.767Z,12.1
2018-12-22T11:55:14.052Z,12.0
2018-12-22T11:56:15.534Z,12.0
2018-12-22T11:57:16.928Z,12.0
2018-12-22T11:58:18.312Z,12.0
2018-12-22T11:59:19.707Z,12.0
2018-12-22T12:00:21.180Z,12.0
2018-12-22T12:01:23.581Z,12.0
2018-12-22T12:02:25.626Z,11.9
2018-12-22T12:03:28.037Z,11.9
2018-12-22T12:04:30.489Z,11.9
2018-12-22T12:05:31.904Z,11.9
2018-12-22T12:06:34.104Z,11.9
2018-12-22T12:07:36.979Z,11.9
2018-12-22T12:08:38.382Z,12.0
2018-12-22T12:09:40.349Z,11.9
2018-12-22T12:10:41.791Z,11.9
2018-12-22T12:11:43.182Z,11.9
2018-12-22T12:12:44.608Z,11.9
2018-12-22T12:13:46.103Z,12.1
2018-12-22T12:14:47.507Z,12.2
2018-12-22T12:15:48.886Z,12.4
2018-12-22T12:16:50.296Z,12.5
2018-12-22T12:17:51.683Z,12.5
2018-12-22T12:18:53.117Z,12.6
2018-12-22T12:19:54.561Z,12.6
2018-12-22T12:20:55.963Z,12.6
2018-12-22T12:21:57.388Z,12.6
2018-12-22T12:22:58.833Z,12.7
2018-12-22T12:24:00.605Z,12.6
2018-12-22T12:25:01.873Z,12.6
2018-12-22T12:26:04.103Z,12.6
2018-12-22T12:27:05.651Z,12.7
2018-12-22T12:28:07.168Z,12.6
2018-12-22T12:29:08.643Z,12.7
2018-12-22T12:30:10.097Z,12.8
2018-12-22T12:31:11.591Z,12.7
2018-12-22T12:32:13.102Z,12.7
2018-12-22T12:33:14.797Z,12.7
2018-12-22T12:34:16.161Z,12.8
2018-12-22T12:35:17.671Z,12.8
2018-12-22T12:36:19.109Z,12.7
2018-12-22T12:37:21.088Z,12.7
2018-12-22T12:38:22.499Z,12.7
2018-12-22T12:39:23.974Z,12.6
2018-12-22T12:40:25.557Z,12.7
2018-12-22T12:41:27.144Z,12.8
2018-12-22T12:42:28.778Z,12.8
2018-12-22T12:43:30.252Z,12.9
2018-12-22T12:44:31.717Z,12.8
2018-12-22T12:45:33.167Z,12.9
2018-12-22T12:46:34.654Z,12.9
2018-12-22T12:47:36.337Z,12.9
2018-12-22T12:48:37.782Z,12.8
2018-12-22T12:49:39.242Z,12.8
2018-12-22T12:50:41.234Z,12.9
2018-12-22T12:51:44.589Z,12.8
2018-12-22T12:52:46.066Z,12.8
2018-12-22T12:53:48.369Z,12.8
2018-12-22T12:54:50.402Z,12.7
2018-12-22T12:55:51.895Z,12.7
2018-12-22T12:56:53.501Z,12.6
2018-12-22T12:57:55.905Z,12.7
2018-12-22T12:58:57.795Z,12.6
2018-12-22T12:59:59.261Z,12.4
2018-12-22T13:01:01.779Z,12.4
2018-12-22T13:02:03.272Z,12.4
2018-12-22T13:03:04.894Z,12.3
2018-12-22T13:04:06.448Z,12.3
2018-12-22T13:05:08.521Z,12.3
2018-12-22T13:06:09.974Z,12.2
2018-12-22T13:07:11.471Z,12.2
2018-12-22T13:08:13.989Z,12.0
2018-12-22T13:09:15.913Z,12.0
2018-12-22T13:10:16.964Z,11.9
2018-12-22T13:11:19.370Z,11.9
2018-12-22T13:12:21.468Z,11.8
2018-12-22T13:13:24.349Z,11.8
2018-12-22T13:14:25.867Z,11.7
2018-12-22T13:15:27.372Z,11.7
2018-12-22T13:16:29.563Z,11.7
2018-12-22T13:17:31.800Z,11.6
2018-12-22T13:18:33.270Z,11.6
2018-12-22T13:19:35.439Z,11.6
2018-12-22T13:20:37.010Z,11.5
2018-12-22T13:21:39.265Z,11.5
2018-12-22T13:22:40.749Z,11.4
2018-12-22T13:23:42.273Z,11.3
2018-12-22T13:24:43.784Z,11.4
2018-12-22T13:25:45.198Z,11.4
2018-12-22T13:26:46.666Z,11.3
2018-12-22T13:27:48.149Z,11.3
2018-12-22T13:28:49.669Z,11.3
2018-12-22T13:29:51.073Z,11.3
2018-12-22T13:30:52.519Z,11.1
2018-12-22T13:31:53.988Z,11.2
2018-12-22T13:32:55.707Z,11.2
2018-12-22T13:33:57.049Z,11.2
2018-12-22T13:34:58.498Z,11.1
2018-12-22T13:35:59.987Z,11.2
2018-12-22T13:37:01.458Z,11.2
2018-12-22T13:38:03.771Z,11.0
2018-12-22T13:39:05.563Z,11.1
2018-12-22T13:40:07.060Z,11.1